sensor_id;sensor_type;location;lat;lon;timestamp;P1;durP1;ratioP1;P2;durP2;ratioP2
21800;SDS011;11062;51.164;16.924;2023-05-10T00:02:01;50.13;;;39.30;;
21800;SDS011;11062;51.164;16.924;2023-05-10T00:04:27;50.70;;;42.35;;
21800;SDS011;11062;51.164;16.924;2023-05-10T00:06:55;63.15;;;48.83;;
21800;SDS011;11062;51.164;16.924;2023-05-10T00:09:21;80.75;;;61.25;;
21800;SDS011;11062;51.164;16.924;2023-05-10T00:11:47;90.13;;;62.47;;
21800;SDS011;11062;51.164;16.924;2023-05-10T00:14:13;80.32;;;61.75;;
21800;SDS011;11062;51.164;16.924;2023-05-10T00:16:39;82.30;;;60.78;;
21800;SDS011;11062;51.164;16.924;2023-05-10T00:19:05;80.03;;;56.95;;
21800;SDS011;11062;51.164;16.924;2023-05-10T00:21:34;77.93;;;59.70;;
21800;SDS011;11062;51.164;16.924;2023-05-10T00:24:06;60.45;;;42.88;;
21800;SDS011;11062;51.164;16.924;2023-05-10T00:26:32;59.78;;;46.42;;
21800;SDS011;11062;51.164;16.924;2023-05-10T00:28:58;101.80;;;62.33;;
21800;SDS011;11062;51.164;16.924;2023-05-10T00:31:30;99.90;;;68.68;;
21800;SDS011;11062;51.164;16.924;2023-05-10T00:33:56;104.40;;;63.28;;
21800;SDS011;11062;51.164;16.924;2023-05-10T00:36:22;84.07;;;57.83;;
21800;SDS011;11062;51.164;16.924;2023-05-10T00:38:48;103.18;;;68.60;;
21800;SDS011;11062;51.164;16.924;2023-05-10T00:41:17;122.93;;;75.97;;
21800;SDS011;11062;51.164;16.924;2023-05-10T00:43:46;108.45;;;70.50;;
21800;SDS011;11062;51.164;16.924;2023-05-10T00:46:14;150.02;;;78.88;;
21800;SDS011;11062;51.164;16.924;2023-05-10T00:48:43;116.35;;;74.40;;
21800;SDS011;11062;51.164;16.924;2023-05-10T00:51:10;121.38;;;73.45;;
21800;SDS011;11062;51.164;16.924;2023-05-10T00:53:36;131.43;;;73.20;;
21800;SDS011;11062;51.164;16.924;2023-05-10T00:56:02;151.85;;;82.50;;
21800;SDS011;11062;51.164;16.924;2023-05-10T00:58:35;135.13;;;80.38;;
21800;SDS011;11062;51.164;16.924;2023-05-10T01:01:04;119.53;;;72.60;;
21800;SDS011;11062;51.164;16.924;2023-05-10T01:03:34;126.50;;;73.00;;
21800;SDS011;11062;51.164;16.924;2023-05-10T01:06:04;124.55;;;74.43;;
21800;SDS011;11062;51.164;16.924;2023-05-10T01:08:35;128.73;;;73.53;;
21800;SDS011;11062;51.164;16.924;2023-05-10T01:11:02;133.90;;;74.18;;
21800;SDS011;11062;51.164;16.924;2023-05-10T01:13:34;126.85;;;76.25;;
21800;SDS011;11062;51.164;16.924;2023-05-10T01:51:23;106.60;;;57.88;;
21800;SDS011;11062;51.164;16.924;2023-05-10T01:53:58;152.80;;;79.55;;
21800;SDS011;11062;51.164;16.924;2023-05-10T01:56:30;139.80;;;70.82;;
21800;SDS011;11062;51.164;16.924;2023-05-10T01:59:00;163.32;;;86.00;;
21800;SDS011;11062;51.164;16.924;2023-05-10T02:01:40;141.23;;;71.63;;
21800;SDS011;11062;51.164;16.924;2023-05-10T02:04:07;145.00;;;78.47;;
21800;SDS011;11062;51.164;16.924;2023-05-10T02:06:37;151.07;;;78.22;;
21800;SDS011;11062;51.164;16.924;2023-05-10T02:09:05;160.82;;;85.57;;
21800;SDS011;11062;51.164;16.924;2023-05-10T02:11:34;167.75;;;80.82;;
21800;SDS011;11062;51.164;16.924;2023-05-10T02:14:05;173.35;;;84.53;;
21800;SDS011;11062;51.164;16.924;2023-05-10T02:16:40;162.00;;;83.57;;
21800;SDS011;11062;51.164;16.924;2023-05-10T02:19:11;146.05;;;80.82;;
21800;SDS011;11062;51.164;16.924;2023-05-10T02:21:42;112.20;;;66.50;;
21800;SDS011;11062;51.164;16.924;2023-05-10T02:24:10;148.93;;;81.18;;
21800;SDS011;11062;51.164;16.924;2023-05-10T02:26:39;120.50;;;74.95;;
21800;SDS011;11062;51.164;16.924;2023-05-10T02:29:07;133.65;;;76.20;;
21800;SDS011;11062;51.164;16.924;2023-05-10T02:31:35;129.48;;;77.30;;
21800;SDS011;11062;51.164;16.924;2023-05-10T02:34:03;113.70;;;70.90;;
21800;SDS011;11062;51.164;16.924;2023-05-10T02:36:34;108.60;;;71.88;;
21800;SDS011;11062;51.164;16.924;2023-05-10T02:39:06;130.40;;;76.85;;
21800;SDS011;11062;51.164;16.924;2023-05-10T02:41:37;121.32;;;72.45;;
21800;SDS011;11062;51.164;16.924;2023-05-10T02:44:10;104.32;;;66.10;;
21800;SDS011;11062;51.164;16.924;2023-05-10T03:24:51;187.75;;;88.22;;
21800;SDS011;11062;51.164;16.924;2023-05-10T03:28:14;175.65;;;85.20;;
21800;SDS011;11062;51.164;16.924;2023-05-10T03:31:28;194.10;;;90.53;;
21800;SDS011;11062;51.164;16.924;2023-05-10T03:44:46;244.57;;;82.97;;
21800;SDS011;11062;51.164;16.924;2023-05-10T03:48:12;184.30;;;87.25;;
21800;SDS011;11062;51.164;16.924;2023-05-10T03:50:38;180.00;;;84.13;;
21800;SDS011;11062;51.164;16.924;2023-05-10T03:53:08;170.07;;;82.60;;
21800;SDS011;11062;51.164;16.924;2023-05-10T03:55:37;151.85;;;76.40;;
21800;SDS011;11062;51.164;16.924;2023-05-10T03:58:06;141.52;;;75.22;;
21800;SDS011;11062;51.164;16.924;2023-05-10T04:00:35;148.88;;;73.50;;
21800;SDS011;11062;51.164;16.924;2023-05-10T04:03:09;111.43;;;69.70;;
21800;SDS011;11062;51.164;16.924;2023-05-10T04:05:35;127.10;;;70.05;;
21800;SDS011;11062;51.164;16.924;2023-05-10T04:08:02;112.25;;;67.43;;
21800;SDS011;11062;51.164;16.924;2023-05-10T04:10:34;105.93;;;62.20;;
21800;SDS011;11062;51.164;16.924;2023-05-10T04:13:00;94.45;;;58.00;;
21800;SDS011;11062;51.164;16.924;2023-05-10T04:15:26;119.00;;;67.78;;
21800;SDS011;11062;51.164;16.924;2023-05-10T04:17:52;127.03;;;70.90;;
21800;SDS011;11062;51.164;16.924;2023-05-10T04:20:20;132.80;;;74.00;;
21800;SDS011;11062;51.164;16.924;2023-05-10T04:22:46;120.65;;;69.60;;
21800;SDS011;11062;51.164;16.924;2023-05-10T04:25:15;108.93;;;66.05;;
21800;SDS011;11062;51.164;16.924;2023-05-10T04:27:48;119.53;;;70.72;;
21800;SDS011;11062;51.164;16.924;2023-05-10T04:30:17;115.18;;;64.78;;
21800;SDS011;11062;51.164;16.924;2023-05-10T04:32:43;96.95;;;61.65;;
21800;SDS011;11062;51.164;16.924;2023-05-10T04:35:09;91.65;;;61.70;;
21800;SDS011;11062;51.164;16.924;2023-05-10T04:37:35;122.07;;;70.05;;
21800;SDS011;11062;51.164;16.924;2023-05-10T04:40:02;93.63;;;63.13;;
21800;SDS011;11062;51.164;16.924;2023-05-10T04:42:28;98.03;;;62.47;;
21800;SDS011;11062;51.164;16.924;2023-05-10T04:44:54;98.22;;;59.78;;
21800;SDS011;11062;51.164;16.924;2023-05-10T04:47:23;93.63;;;62.45;;
21800;SDS011;11062;51.164;16.924;2023-05-10T04:49:49;82.05;;;56.22;;
21800;SDS011;11062;51.164;16.924;2023-05-10T04:52:15;64.95;;;47.80;;
21800;SDS011;11062;51.164;16.924;2023-05-10T04:54:42;48.28;;;43.25;;
21800;SDS011;11062;51.164;16.924;2023-05-10T04:57:11;58.15;;;46.25;;
21800;SDS011;11062;51.164;16.924;2023-05-10T04:59:37;83.70;;;57.40;;
21800;SDS011;11062;51.164;16.924;2023-05-10T05:02:02;51.83;;;44.30;;
21800;SDS011;11062;51.164;16.924;2023-05-10T05:04:30;63.72;;;44.33;;
21800;SDS011;11062;51.164;16.924;2023-05-10T05:06:57;68.53;;;47.10;;
21800;SDS011;11062;51.164;16.924;2023-05-10T05:09:23;142.48;;;43.78;;
21800;SDS011;11062;51.164;16.924;2023-05-10T05:12:00;46.65;;;37.15;;
21800;SDS011;11062;51.164;16.924;2023-05-10T05:14:26;37.15;;;24.80;;
21800;SDS011;11062;51.164;16.924;2023-05-10T05:16:52;44.33;;;37.00;;
21800;SDS011;11062;51.164;16.924;2023-05-10T05:19:18;35.65;;;26.23;;
21800;SDS011;11062;51.164;16.924;2023-05-10T05:21:47;53.15;;;40.40;;
21800;SDS011;11062;51.164;16.924;2023-05-10T05:24:16;48.58;;;43.40;;
21800;SDS011;11062;51.164;16.924;2023-05-10T05:26:42;35.38;;;32.35;;
21800;SDS011;11062;51.164;16.924;2023-05-10T05:29:11;123.45;;;78.75;;
21800;SDS011;11062;51.164;16.924;2023-05-10T05:31:37;105.22;;;67.68;;
21800;SDS011;11062;51.164;16.924;2023-05-10T05:34:06;113.57;;;71.93;;
21800;SDS011;11062;51.164;16.924;2023-05-10T05:36:32;150.52;;;83.32;;
21800;SDS011;11062;51.164;16.924;2023-05-10T05:39:01;128.75;;;78.80;;
21800;SDS011;11062;51.164;16.924;2023-05-10T05:41:27;164.98;;;90.68;;
21800;SDS011;11062;51.164;16.924;2023-05-10T05:43:52;207.05;;;95.55;;
21800;SDS011;11062;51.164;16.924;2023-05-10T05:46:27;122.50;;;79.72;;
21800;SDS011;11062;51.164;16.924;2023-05-10T05:49:04;211.90;;;100.03;;
21800;SDS011;11062;51.164;16.924;2023-05-10T05:51:32;220.80;;;102.60;;
21800;SDS011;11062;51.164;16.924;2023-05-10T05:53:59;158.55;;;90.53;;
21800;SDS011;11062;51.164;16.924;2023-05-10T05:56:29;122.00;;;74.80;;
21800;SDS011;11062;51.164;16.924;2023-05-10T05:58:58;136.90;;;83.38;;
21800;SDS011;11062;51.164;16.924;2023-05-10T06:01:27;71.93;;;56.97;;
21800;SDS011;11062;51.164;16.924;2023-05-10T06:03:53;62.35;;;50.15;;
21800;SDS011;11062;51.164;16.924;2023-05-10T06:06:30;123.82;;;73.60;;
21800;SDS011;11062;51.164;16.924;2023-05-10T06:09:06;53.55;;;42.00;;
21800;SDS011;11062;51.164;16.924;2023-05-10T09:29:38;13.85;;;3.78;;
21800;SDS011;11062;51.164;16.924;2023-05-10T10:24:23;62.30;;;9.32;;
21800;SDS011;11062;51.164;16.924;2023-05-10T10:28:03;78.30;;;20.05;;
21800;SDS011;11062;51.164;16.924;2023-05-10T11:07:21;38.95;;;4.63;;
21800;SDS011;11062;51.164;16.924;2023-05-10T11:11:03;63.45;;;6.13;;
21800;SDS011;11062;51.164;16.924;2023-05-10T11:17:57;7.50;;;2.60;;
21800;SDS011;11062;51.164;16.924;2023-05-10T12:10:44;12.98;;;2.80;;
21800;SDS011;11062;51.164;16.924;2023-05-10T12:14:33;23.02;;;3.47;;
21800;SDS011;11062;51.164;16.924;2023-05-10T12:21:20;13.60;;;3.03;;
21800;SDS011;11062;51.164;16.924;2023-05-10T12:25:01;19.23;;;3.60;;
21800;SDS011;11062;51.164;16.924;2023-05-10T12:43:06;14.75;;;3.05;;
21800;SDS011;11062;51.164;16.924;2023-05-10T13:00:38;56.13;;;6.85;;
21800;SDS011;11062;51.164;16.924;2023-05-10T13:03:08;29.10;;;4.50;;
21800;SDS011;11062;51.164;16.924;2023-05-10T13:05:34;13.45;;;3.35;;
21800;SDS011;11062;51.164;16.924;2023-05-10T13:08:02;54.35;;;24.50;;
21800;SDS011;11062;51.164;16.924;2023-05-10T13:10:31;43.33;;;22.17;;
21800;SDS011;11062;51.164;16.924;2023-05-10T13:13:01;12.38;;;2.85;;
21800;SDS011;11062;51.164;16.924;2023-05-10T13:15:27;42.42;;;4.90;;
21800;SDS011;11062;51.164;16.924;2023-05-10T13:17:53;9.05;;;2.67;;
21800;SDS011;11062;51.164;16.924;2023-05-10T13:20:22;26.63;;;6.40;;
21800;SDS011;11062;51.164;16.924;2023-05-10T13:22:48;12.30;;;2.80;;
21800;SDS011;11062;51.164;16.924;2023-05-10T13:25:17;36.03;;;7.32;;
21800;SDS011;11062;51.164;16.924;2023-05-10T13:27:43;22.58;;;3.78;;
21800;SDS011;11062;51.164;16.924;2023-05-10T13:30:12;38.58;;;4.53;;
21800;SDS011;11062;51.164;16.924;2023-05-10T14:11:53;92.35;;;49.88;;
21800;SDS011;11062;51.164;16.924;2023-05-10T14:45:45;8.15;;;2.25;;
21800;SDS011;11062;51.164;16.924;2023-05-10T14:48:38;51.30;;;5.40;;
21800;SDS011;11062;51.164;16.924;2023-05-10T15:06:31;121.32;;;109.13;;
21800;SDS011;11062;51.164;16.924;2023-05-10T15:10:07;109.50;;;25.48;;
21800;SDS011;11062;51.164;16.924;2023-05-10T15:23:31;8.18;;;2.90;;
21800;SDS011;11062;51.164;16.924;2023-05-10T15:25:58;12.18;;;5.18;;
21800;SDS011;11062;51.164;16.924;2023-05-10T15:28:25;10.43;;;2.92;;
21800;SDS011;11062;51.164;16.924;2023-05-10T15:30:56;9.82;;;2.42;;
21800;SDS011;11062;51.164;16.924;2023-05-10T15:33:24;7.65;;;2.30;;
21800;SDS011;11062;51.164;16.924;2023-05-10T15:35:50;77.32;;;7.90;;
21800;SDS011;11062;51.164;16.924;2023-05-10T15:38:18;21.45;;;3.72;;
21800;SDS011;11062;51.164;16.924;2023-05-10T15:40:50;25.90;;;4.38;;
21800;SDS011;11062;51.164;16.924;2023-05-10T15:43:27;17.77;;;3.03;;
21800;SDS011;11062;51.164;16.924;2023-05-10T18:52:50;25.27;;;4.13;;
21800;SDS011;11062;51.164;16.924;2023-05-10T18:55:16;18.13;;;3.58;;
21800;SDS011;11062;51.164;16.924;2023-05-10T18:57:42;22.10;;;4.18;;
21800;SDS011;11062;51.164;16.924;2023-05-10T19:00:09;9.43;;;3.42;;
21800;SDS011;11062;51.164;16.924;2023-05-10T19:02:39;14.95;;;3.80;;
21800;SDS011;11062;51.164;16.924;2023-05-10T19:05:08;26.98;;;4.75;;
21800;SDS011;11062;51.164;16.924;2023-05-10T19:07:39;29.35;;;4.57;;
21800;SDS011;11062;51.164;16.924;2023-05-10T19:10:11;26.77;;;4.18;;
21800;SDS011;11062;51.164;16.924;2023-05-10T19:12:37;33.28;;;4.72;;
21800;SDS011;11062;51.164;16.924;2023-05-10T19:15:09;21.90;;;4.35;;
21800;SDS011;11062;51.164;16.924;2023-05-10T19:17:44;23.23;;;4.93;;
21800;SDS011;11062;51.164;16.924;2023-05-10T19:20:15;20.38;;;4.18;;
21800;SDS011;11062;51.164;16.924;2023-05-10T19:22:41;22.02;;;4.40;;
21800;SDS011;11062;51.164;16.924;2023-05-10T19:25:07;28.88;;;5.00;;
21800;SDS011;11062;51.164;16.924;2023-05-10T19:27:37;28.77;;;5.55;;
21800;SDS011;11062;51.164;16.924;2023-05-10T19:30:09;318.92;;;229.57;;
21800;SDS011;11062;51.164;16.924;2023-05-10T19:32:38;6.13;;;3.15;;
21800;SDS011;11062;51.164;16.924;2023-05-10T19:35:11;6.47;;;3.30;;
21800;SDS011;11062;51.164;16.924;2023-05-10T19:37:40;7.15;;;3.22;;
21800;SDS011;11062;51.164;16.924;2023-05-10T19:40:12;3.95;;;3.22;;
21800;SDS011;11062;51.164;16.924;2023-05-10T19:42:43;7.53;;;3.85;;
21800;SDS011;11062;51.164;16.924;2023-05-10T20:24:29;315.70;;;116.25;;
21800;SDS011;11062;51.164;16.924;2023-05-10T20:26:59;312.73;;;110.00;;
21800;SDS011;11062;51.164;16.924;2023-05-10T20:29:25;301.17;;;109.28;;
21800;SDS011;11062;51.164;16.924;2023-05-10T20:31:51;307.20;;;111.90;;
21800;SDS011;11062;51.164;16.924;2023-05-10T20:34:19;304.23;;;113.97;;
21800;SDS011;11062;51.164;16.924;2023-05-10T20:36:48;303.65;;;107.70;;
21800;SDS011;11062;51.164;16.924;2023-05-10T20:39:17;298.05;;;110.10;;
21800;SDS011;11062;51.164;16.924;2023-05-10T20:41:43;293.77;;;107.60;;
21800;SDS011;11062;51.164;16.924;2023-05-10T20:44:12;298.67;;;114.18;;
21800;SDS011;11062;51.164;16.924;2023-05-10T20:46:38;295.92;;;106.20;;
21800;SDS011;11062;51.164;16.924;2023-05-10T20:49:10;299.63;;;104.82;;
21800;SDS011;11062;51.164;16.924;2023-05-10T20:51:38;296.52;;;108.88;;
21800;SDS011;11062;51.164;16.924;2023-05-10T20:54:07;299.83;;;110.53;;
21800;SDS011;11062;51.164;16.924;2023-05-10T20:56:36;295.15;;;111.93;;
21800;SDS011;11062;51.164;16.924;2023-05-10T20:59:09;290.15;;;104.75;;
21800;SDS011;11062;51.164;16.924;2023-05-10T21:01:35;293.70;;;105.72;;
21800;SDS011;11062;51.164;16.924;2023-05-10T21:04:02;296.15;;;106.82;;
21800;SDS011;11062;51.164;16.924;2023-05-10T21:06:30;287.90;;;106.95;;
21800;SDS011;11062;51.164;16.924;2023-05-10T21:08:56;294.98;;;102.57;;
21800;SDS011;11062;51.164;16.924;2023-05-10T21:11:22;289.17;;;104.80;;
21800;SDS011;11062;51.164;16.924;2023-05-10T21:13:49;291.80;;;107.25;;
21800;SDS011;11062;51.164;16.924;2023-05-10T21:16:18;299.15;;;108.95;;
21800;SDS011;11062;51.164;16.924;2023-05-10T21:18:44;295.70;;;108.35;;
21800;SDS011;11062;51.164;16.924;2023-05-10T21:21:13;293.70;;;107.22;;
21800;SDS011;11062;51.164;16.924;2023-05-10T21:23:44;299.20;;;109.07;;
21800;SDS011;11062;51.164;16.924;2023-05-10T21:26:11;292.40;;;107.15;;
21800;SDS011;11062;51.164;16.924;2023-05-10T21:28:44;300.05;;;107.57;;
21800;SDS011;11062;51.164;16.924;2023-05-10T21:31:23;298.65;;;109.97;;
21800;SDS011;11062;51.164;16.924;2023-05-10T21:33:49;299.88;;;109.43;;
21800;SDS011;11062;51.164;16.924;2023-05-10T21:36:15;291.33;;;107.97;;
21800;SDS011;11062;51.164;16.924;2023-05-10T21:38:45;290.83;;;104.43;;
21800;SDS011;11062;51.164;16.924;2023-05-10T21:41:11;292.00;;;108.65;;
21800;SDS011;11062;51.164;16.924;2023-05-10T21:43:39;294.23;;;107.85;;
21800;SDS011;11062;51.164;16.924;2023-05-10T21:46:08;297.13;;;107.05;;
21800;SDS011;11062;51.164;16.924;2023-05-10T21:48:40;292.35;;;110.18;;
21800;SDS011;11062;51.164;16.924;2023-05-10T21:51:14;295.52;;;109.47;;
21800;SDS011;11062;51.164;16.924;2023-05-10T21:53:40;297.48;;;111.13;;
21800;SDS011;11062;51.164;16.924;2023-05-10T21:56:09;297.13;;;109.68;;
21800;SDS011;11062;51.164;16.924;2023-05-10T21:58:35;294.30;;;108.05;;
21800;SDS011;11062;51.164;16.924;2023-05-10T22:01:01;295.83;;;109.35;;
21800;SDS011;11062;51.164;16.924;2023-05-10T22:03:27;315.15;;;115.82;;
21800;SDS011;11062;51.164;16.924;2023-05-10T22:05:53;288.95;;;103.20;;
21800;SDS011;11062;51.164;16.924;2023-05-10T22:08:19;291.60;;;105.00;;
21800;SDS011;11062;51.164;16.924;2023-05-10T22:10:48;295.80;;;103.53;;
21800;SDS011;11062;51.164;16.924;2023-05-10T22:13:18;291.13;;;104.65;;
21800;SDS011;11062;51.164;16.924;2023-05-10T22:15:47;300.88;;;116.53;;
21800;SDS011;11062;51.164;16.924;2023-05-10T22:18:16;290.50;;;100.82;;
21800;SDS011;11062;51.164;16.924;2023-05-10T22:20:45;297.15;;;101.20;;
21800;SDS011;11062;51.164;16.924;2023-05-10T23:03:00;298.67;;;104.25;;
21800;SDS011;11062;51.164;16.924;2023-05-10T23:39:31;292.58;;;103.35;;
21800;SDS011;11062;51.164;16.924;2023-05-10T23:42:02;295.40;;;104.50;;
21800;SDS011;11062;51.164;16.924;2023-05-10T23:44:31;301.52;;;106.95;;
21800;SDS011;11062;51.164;16.924;2023-05-10T23:46:59;289.15;;;103.55;;
21800;SDS011;11062;51.164;16.924;2023-05-10T23:49:31;286.77;;;103.32;;
21800;SDS011;11062;51.164;16.924;2023-05-10T23:52:00;289.40;;;100.65;;
21800;SDS011;11062;51.164;16.924;2023-05-10T23:54:35;287.85;;;101.88;;
21800;SDS011;11062;51.164;16.924;2023-05-10T23:57:01;296.42;;;102.40;;
21800;SDS011;11062;51.164;16.924;2023-05-10T23:59:30;294.38;;;101.93;;
